createdAt,value
2023-02-23T00:01:45.590Z,31.45
2023-02-23T00:04:18.082Z,32.13
2023-02-23T00:06:49.493Z,31.27
2023-02-23T00:09:27.238Z,23.02
2023-02-23T00:12:01.133Z,25.82
2023-02-23T00:14:32.392Z,26.07
2023-02-23T00:17:23.739Z,25.08
2023-02-23T00:20:23.764Z,26.10
2023-02-23T00:22:44.766Z,32.38
2023-02-23T00:25:18.008Z,25.82
2023-02-23T00:27:56.975Z,22.30
2023-02-23T00:30:29.493Z,25.62
2023-02-23T00:33:00.755Z,27.98
2023-02-23T00:35:31.619Z,24.87
2023-02-23T00:38:02.507Z,26.10
2023-02-23T00:40:37.834Z,20.72
2023-02-23T00:43:08.869Z,22.60
2023-02-23T00:45:40.130Z,21.30
2023-02-23T00:48:11.934Z,21.48
2023-02-23T00:50:42.923Z,24.47
2023-02-23T00:53:14.144Z,25.35
2023-02-23T00:55:45.277Z,22.22
2023-02-23T00:58:18.190Z,23.18
2023-02-23T01:00:49.731Z,25.35
2023-02-23T01:03:20.800Z,20.55
2023-02-23T01:05:51.977Z,21.25
2023-02-23T01:12:06.432Z,25.85
2023-02-23T01:14:39.095Z,19.62
2023-02-23T01:17:10.410Z,24.70
2023-02-23T01:22:19.873Z,22.65
2023-02-23T01:24:51.287Z,21.00
2023-02-23T01:27:22.725Z,30.30
2023-02-23T01:29:53.770Z,23.00
2023-02-23T01:32:30.645Z,20.77
2023-02-23T01:35:04.701Z,23.80
2023-02-23T01:37:37.360Z,22.85
2023-02-23T01:40:16.484Z,17.62
2023-02-23T01:42:49.598Z,18.85
2023-02-23T01:45:30.212Z,24.65
2023-02-23T01:48:05.161Z,24.10
2023-02-23T01:50:50.560Z,21.95
2023-02-23T01:53:25.890Z,21.20
2023-02-23T01:56:03.367Z,26.70
2023-02-23T01:58:38.286Z,23.98
2023-02-23T02:01:10.971Z,23.30
2023-02-23T02:03:44.826Z,30.72
2023-02-23T02:06:18.017Z,23.57
2023-02-23T02:08:55.975Z,20.97
2023-02-23T02:11:35.372Z,26.12
2023-02-23T02:14:15.635Z,25.27
2023-02-23T02:17:19.445Z,25.35
2023-02-23T02:20:21.108Z,26.20
2023-02-23T02:23:16.391Z,25.80
2023-02-23T02:25:56.363Z,25.00
2023-02-23T02:28:42.777Z,25.27
2023-02-23T02:34:58.155Z,27.55
2023-02-23T02:37:43.727Z,24.40
2023-02-23T02:40:23.573Z,23.62
2023-02-23T02:46:31.911Z,30.37
2023-02-23T02:49:10.045Z,26.48
2023-02-23T02:51:46.398Z,26.25
2023-02-23T02:54:35.019Z,23.75
2023-02-23T02:57:08.149Z,24.82
2023-02-23T03:03:26.331Z,21.75
2023-02-23T03:06:15.949Z,22.32
2023-02-23T03:09:16.910Z,24.00
2023-02-23T03:12:14.048Z,23.50
2023-02-23T03:15:19.455Z,19.77
2023-02-23T03:18:10.408Z,21.77
2023-02-23T03:24:15.768Z,24.15
2023-02-23T03:27:09.608Z,21.80
2023-02-23T03:30:12.937Z,24.05
2023-02-23T03:33:09.792Z,19.17
2023-02-23T03:36:18.464Z,19.07
2023-02-23T03:39:12.030Z,18.02
2023-02-23T03:42:02.650Z,22.52
2023-02-23T03:44:53.586Z,17.52
2023-02-23T03:47:45.223Z,19.80
2023-02-23T03:50:42.779Z,19.07
2023-02-23T03:53:34.295Z,16.85
2023-02-23T03:56:26.510Z,20.20
2023-02-23T03:59:17.991Z,20.75
2023-02-23T04:02:09.531Z,21.10
2023-02-23T04:05:00.196Z,22.45
2023-02-23T04:07:50.057Z,17.50
2023-02-23T04:10:39.435Z,19.55
2023-02-23T04:13:18.175Z,21.60
2023-02-23T04:15:52.001Z,23.30
2023-02-23T04:18:28.846Z,19.10
2023-02-23T04:23:31.938Z,15.90
2023-02-23T04:26:03.428Z,20.25
2023-02-23T04:28:34.868Z,15.05
2023-02-23T04:31:06.214Z,18.52
2023-02-23T04:33:38.856Z,16.17
2023-02-23T04:36:10.740Z,19.62
2023-02-23T04:38:42.140Z,16.73
2023-02-23T04:41:13.754Z,16.93
2023-02-23T04:43:45.253Z,19.42
2023-02-23T04:46:18.691Z,17.00
2023-02-23T04:48:51.064Z,18.50
2023-02-23T04:51:22.361Z,18.15
2023-02-23T04:53:53.606Z,19.00
2023-02-23T04:56:27.235Z,19.92
2023-02-23T04:58:57.338Z,21.05
2023-02-23T05:01:33.139Z,19.57
2023-02-23T05:04:04.943Z,22.32
2023-02-23T05:06:44.745Z,23.18
2023-02-23T05:09:17.219Z,22.98
2023-02-23T05:11:48.491Z,19.32
2023-02-23T05:14:20.639Z,15.88
2023-02-23T05:16:52.417Z,20.08
2023-02-23T05:19:23.963Z,20.05
2023-02-23T05:21:57.949Z,17.48
2023-02-23T05:24:35.173Z,21.48
2023-02-23T05:27:06.533Z,15.68
2023-02-23T05:29:38.497Z,22.27
2023-02-23T05:32:09.738Z,15.00
2023-02-23T05:34:41.069Z,15.05
2023-02-23T05:37:11.918Z,16.10
2023-02-23T05:39:43.522Z,18.02
2023-02-23T05:42:18.500Z,15.63
2023-02-23T05:44:49.375Z,17.20
2023-02-23T05:47:20.562Z,15.45
2023-02-23T05:49:53.674Z,16.05
2023-02-23T05:52:25.695Z,18.52
2023-02-23T05:54:56.917Z,13.50
2023-02-23T06:00:55.854Z,15.78
2023-02-23T06:03:27.624Z,17.23
2023-02-23T06:06:00.315Z,17.00
2023-02-23T06:08:31.448Z,15.25
2023-02-23T06:11:02.410Z,14.55
2023-02-23T06:13:33.839Z,19.87
2023-02-23T06:16:05.116Z,18.95
2023-02-23T06:18:35.927Z,15.80
2023-02-23T06:21:07.169Z,19.60
2023-02-23T06:23:38.943Z,17.82
2023-02-23T06:26:10.114Z,19.90
2023-02-23T06:28:41.078Z,22.42
2023-02-23T06:31:13.544Z,18.50
2023-02-23T06:33:44.660Z,16.00
2023-02-23T06:36:15.472Z,17.07
2023-02-23T06:38:48.446Z,22.02
2023-02-23T06:41:20.299Z,17.02
2023-02-23T06:43:55.877Z,14.28
2023-02-23T06:46:26.949Z,16.95
2023-02-23T06:49:01.129Z,14.98
2023-02-23T06:51:32.065Z,19.25
2023-02-23T06:54:03.154Z,19.05
2023-02-23T06:56:34.141Z,18.92
2023-02-23T06:59:08.583Z,15.78
2023-02-23T07:01:39.635Z,16.60
2023-02-23T07:04:10.617Z,13.93
2023-02-23T07:06:42.007Z,16.27
2023-02-23T07:09:13.065Z,18.62
2023-02-23T07:11:46.273Z,16.95
2023-02-23T07:14:26.116Z,16.07
2023-02-23T07:16:50.614Z,16.55
2023-02-23T07:19:21.938Z,14.40
2023-02-23T07:21:57.063Z,14.25
2023-02-23T07:24:28.972Z,16.15
2023-02-23T07:27:00.586Z,14.73
2023-02-23T07:29:31.801Z,18.48
2023-02-23T07:32:03.553Z,14.55
2023-02-23T07:34:34.742Z,18.40
2023-02-23T07:37:06.274Z,15.38
2023-02-23T07:39:41.829Z,16.93
2023-02-23T07:42:12.850Z,17.05
2023-02-23T07:44:47.905Z,16.02
2023-02-23T07:47:19.080Z,14.68
2023-02-23T07:49:50.193Z,17.77
2023-02-23T07:52:21.532Z,16.93
2023-02-23T07:54:54.178Z,16.25
2023-02-23T07:57:25.350Z,17.57
2023-02-23T07:59:56.561Z,22.40
2023-02-23T08:02:33.901Z,15.25
2023-02-23T08:05:05.002Z,16.37
2023-02-23T08:07:37.119Z,14.70
2023-02-23T08:10:08.785Z,15.30
2023-02-23T08:12:40.307Z,17.12
2023-02-23T08:15:12.401Z,17.32
2023-02-23T08:17:44.792Z,14.55
2023-02-23T08:20:15.995Z,19.35
2023-02-23T08:22:56.907Z,13.45
2023-02-23T08:25:29.854Z,15.23
2023-02-23T08:28:04.361Z,19.17
2023-02-23T08:30:35.246Z,14.20
2023-02-23T08:33:07.025Z,16.32
2023-02-23T08:35:41.237Z,16.40
2023-02-23T08:38:13.619Z,18.57
2023-02-23T08:40:45.183Z,20.02
2023-02-23T08:43:16.403Z,17.82
2023-02-23T08:45:47.348Z,18.23
2023-02-23T08:48:21.215Z,18.75
2023-02-23T08:51:04.462Z,17.75
2023-02-23T08:53:35.722Z,18.77
2023-02-23T08:56:08.832Z,15.18
2023-02-23T08:58:40.246Z,15.03
2023-02-23T09:01:13.833Z,17.23
2023-02-23T09:03:45.272Z,17.27
2023-02-23T09:06:18.975Z,18.20
2023-02-23T09:08:50.746Z,17.90
2023-02-23T09:11:22.304Z,15.95
2023-02-23T09:13:53.676Z,17.87
2023-02-23T09:16:25.108Z,15.80
2023-02-23T09:18:57.044Z,17.57
2023-02-23T09:21:31.488Z,18.55
2023-02-23T09:24:03.000Z,18.98
2023-02-23T09:26:46.020Z,21.10
2023-02-23T09:29:17.944Z,16.75
2023-02-23T09:31:49.693Z,16.48
2023-02-23T09:34:21.386Z,18.15
2023-02-23T09:36:53.283Z,20.92
2023-02-23T09:39:37.218Z,14.98
2023-02-23T09:42:14.688Z,17.75
2023-02-23T09:45:07.368Z,16.23
2023-02-23T09:47:53.336Z,19.62
2023-02-23T09:50:27.294Z,16.42
2023-02-23T09:53:06.248Z,17.90
2023-02-23T09:55:37.911Z,18.37
2023-02-23T09:58:14.756Z,16.17
2023-02-23T10:00:48.359Z,20.77
2023-02-23T10:03:37.634Z,15.55
2023-02-23T10:06:11.112Z,20.60
2023-02-23T10:09:11.158Z,22.00
2023-02-23T10:12:04.496Z,19.23
2023-02-23T10:14:54.819Z,18.02
2023-02-23T10:17:29.110Z,16.93
2023-02-23T10:20:09.162Z,19.27
2023-02-23T10:22:42.551Z,21.87
2023-02-23T10:25:27.160Z,21.75
2023-02-23T10:28:00.053Z,19.60
2023-02-23T10:30:37.708Z,18.55
2023-02-23T10:33:20.348Z,18.57
2023-02-23T10:35:54.048Z,20.45
2023-02-23T10:41:00.594Z,19.77
2023-02-23T10:43:31.554Z,20.50
2023-02-23T10:46:03.540Z,19.15
2023-02-23T10:48:44.371Z,29.18
2023-02-23T10:51:26.320Z,24.43
2023-02-23T10:53:57.308Z,21.07
2023-02-23T10:56:30.110Z,21.25
2023-02-23T10:59:02.315Z,21.50
2023-02-23T11:01:55.466Z,21.85
2023-02-23T11:04:35.926Z,18.15
2023-02-23T11:07:13.301Z,18.52
2023-02-23T11:09:47.788Z,17.10
2023-02-23T11:12:30.259Z,22.07
2023-02-23T11:15:06.473Z,28.98
2023-02-23T11:17:41.126Z,18.45
2023-02-23T11:20:37.236Z,19.67
2023-02-23T11:25:50.297Z,22.32
2023-02-23T11:28:33.131Z,18.75
2023-02-23T11:31:09.336Z,25.30
2023-02-23T11:33:43.943Z,23.10
2023-02-23T11:36:20.109Z,22.40
